sensor_id;sensor_type;location;lat;lon;timestamp;temperature;humidity
83650;DHT22;73612;50.948;6.956;2024-03-23T00:53:42;8.10;99.90
83650;DHT22;73612;50.948;6.956;2024-03-23T00:56:08;8.10;99.90
83650;DHT22;73612;50.948;6.956;2024-03-23T00:58:35;8.10;99.90
83650;DHT22;73612;50.948;6.956;2024-03-23T01:01:02;8.10;99.90
83650;DHT22;73612;50.948;6.956;2024-03-23T01:03:30;8.10;99.90
83650;DHT22;73612;50.948;6.956;2024-03-23T01:06:00;8.10;99.90
83650;DHT22;73612;50.948;6.956;2024-03-23T01:08:26;8.10;99.90
83650;DHT22;73612;50.948;6.956;2024-03-23T01:10:57;8.10;99.90
83650;DHT22;73612;50.948;6.956;2024-03-23T01:13:23;8.10;99.90
83650;DHT22;73612;50.948;6.956;2024-03-23T01:15:50;8.00;99.90
83650;DHT22;73612;50.948;6.956;2024-03-23T01:18:17;8.10;99.90
83650;DHT22;73612;50.948;6.956;2024-03-23T01:20:43;8.10;99.90
83650;DHT22;73612;50.948;6.956;2024-03-23T01:23:10;8.00;99.90
83650;DHT22;73612;50.948;6.956;2024-03-23T01:25:37;8.00;99.90
83650;DHT22;73612;50.948;6.956;2024-03-23T01:28:04;8.00;99.90
83650;DHT22;73612;50.948;6.956;2024-03-23T01:30:30;7.90;99.90
83650;DHT22;73612;50.948;6.956;2024-03-23T01:32:57;7.90;99.90
83650;DHT22;73612;50.948;6.956;2024-03-23T01:35:23;7.90;99.90
83650;DHT22;73612;50.948;6.956;2024-03-23T01:37:51;7.80;99.90
83650;DHT22;73612;50.948;6.956;2024-03-23T01:40:17;7.70;99.90
83650;DHT22;73612;50.948;6.956;2024-03-23T01:43:16;7.60;99.90
83650;DHT22;73612;50.948;6.956;2024-03-23T01:45:26;7.60;99.90
83650;DHT22;73612;50.948;6.956;2024-03-23T01:47:53;7.60;99.90
83650;DHT22;73612;50.948;6.956;2024-03-23T01:50:20;7.50;99.90
83650;DHT22;73612;50.948;6.956;2024-03-23T01:52:46;7.50;99.90
83650;DHT22;73612;50.948;6.956;2024-03-23T01:55:13;7.50;99.90
83650;DHT22;73612;50.948;6.956;2024-03-23T01:57:40;7.50;99.90
83650;DHT22;73612;50.948;6.956;2024-03-23T02:00:07;7.50;99.90
83650;DHT22;73612;50.948;6.956;2024-03-23T02:02:34;7.40;99.90
83650;DHT22;73612;50.948;6.956;2024-03-23T02:05:00;7.40;99.90
83650;DHT22;73612;50.948;6.956;2024-03-23T02:07:27;7.40;99.90
83650;DHT22;73612;50.948;6.956;2024-03-23T02:09:54;7.30;99.90
83650;DHT22;73612;50.948;6.956;2024-03-23T02:12:21;7.30;99.90
83650;DHT22;73612;50.948;6.956;2024-03-23T02:14:47;7.20;99.90
83650;DHT22;73612;50.948;6.956;2024-03-23T02:17:14;7.30;99.90
83650;DHT22;73612;50.948;6.956;2024-03-23T02:19:41;7.20;99.90
83650;DHT22;73612;50.948;6.956;2024-03-23T02:22:07;7.20;99.90
83650;DHT22;73612;50.948;6.956;2024-03-23T02:24:34;7.20;99.90
83650;DHT22;73612;50.948;6.956;2024-03-23T02:27:01;7.20;99.90
83650;DHT22;73612;50.948;6.956;2024-03-23T02:29:27;7.20;99.90
83650;DHT22;73612;50.948;6.956;2024-03-23T02:31:54;7.10;99.90
83650;DHT22;73612;50.948;6.956;2024-03-23T02:34:21;7.10;99.90
83650;DHT22;73612;50.948;6.956;2024-03-23T02:36:47;7.20;99.90
83650;DHT22;73612;50.948;6.956;2024-03-23T02:39:14;7.10;99.90
83650;DHT22;73612;50.948;6.956;2024-03-23T02:41:41;6.90;99.90
83650;DHT22;73612;50.948;6.956;2024-03-23T02:44:07;6.90;99.90
83650;DHT22;73612;50.948;6.956;2024-03-23T02:46:34;6.80;99.90
83650;DHT22;73612;50.948;6.956;2024-03-23T02:49:00;6.80;99.90
83650;DHT22;73612;50.948;6.956;2024-03-23T02:51:27;6.80;99.90
83650;DHT22;73612;50.948;6.956;2024-03-23T02:53:54;6.70;99.90
83650;DHT22;73612;50.948;6.956;2024-03-23T02:56:21;6.60;99.90
83650;DHT22;73612;50.948;6.956;2024-03-23T02:58:47;6.60;99.90
83650;DHT22;73612;50.948;6.956;2024-03-23T03:01:14;6.50;99.90
83650;DHT22;73612;50.948;6.956;2024-03-23T03:03:41;6.50;99.90
83650;DHT22;73612;50.948;6.956;2024-03-23T03:06:07;6.50;99.90
83650;DHT22;73612;50.948;6.956;2024-03-23T03:08:34;6.60;99.90
83650;DHT22;73612;50.948;6.956;2024-03-23T03:11:01;6.50;99.90
83650;DHT22;73612;50.948;6.956;2024-03-23T03:13:28;6.50;99.90
83650;DHT22;73612;50.948;6.956;2024-03-23T03:15:54;6.50;99.90
83650;DHT22;73612;50.948;6.956;2024-03-23T03:18:21;6.40;99.90
83650;DHT22;73612;50.948;6.956;2024-03-23T03:20:48;6.40;99.90
83650;DHT22;73612;50.948;6.956;2024-03-23T03:23:15;6.40;99.90
83650;DHT22;73612;50.948;6.956;2024-03-23T03:25:41;6.40;99.90
83650;DHT22;73612;50.948;6.956;2024-03-23T03:28:08;6.40;99.90
83650;DHT22;73612;50.948;6.956;2024-03-23T03:30:35;6.40;99.90
83650;DHT22;73612;50.948;6.956;2024-03-23T03:33:01;6.40;99.90
83650;DHT22;73612;50.948;6.956;2024-03-23T03:35:28;6.30;99.90
83650;DHT22;73612;50.948;6.956;2024-03-23T03:37:54;6.30;99.90
83650;DHT22;73612;50.948;6.956;2024-03-23T03:40:21;6.30;99.90
83650;DHT22;73612;50.948;6.956;2024-03-23T03:42:48;6.40;99.90
83650;DHT22;73612;50.948;6.956;2024-03-23T03:45:14;6.30;99.90
83650;DHT22;73612;50.948;6.956;2024-03-23T03:47:41;6.30;99.90
83650;DHT22;73612;50.948;6.956;2024-03-23T03:50:07;6.30;99.90
83650;DHT22;73612;50.948;6.956;2024-03-23T03:52:34;6.20;99.90
83650;DHT22;73612;50.948;6.956;2024-03-23T03:55:02;6.30;99.90
83650;DHT22;73612;50.948;6.956;2024-03-23T03:57:28;6.20;99.90
83650;DHT22;73612;50.948;6.956;2024-03-23T03:59:55;6.20;99.90
83650;DHT22;73612;50.948;6.956;2024-03-23T04:02:21;6.20;99.90
83650;DHT22;73612;50.948;6.956;2024-03-23T04:04:48;6.20;99.90
83650;DHT22;73612;50.948;6.956;2024-03-23T04:07:15;6.20;99.90
83650;DHT22;73612;50.948;6.956;2024-03-23T04:09:42;6.10;99.90
83650;DHT22;73612;50.948;6.956;2024-03-23T04:12:08;6.20;99.90
83650;DHT22;73612;50.948;6.956;2024-03-23T04:14:35;6.10;99.90
83650;DHT22;73612;50.948;6.956;2024-03-23T04:17:02;6.00;99.90
83650;DHT22;73612;50.948;6.956;2024-03-23T04:19:29;6.10;99.90
83650;DHT22;73612;50.948;6.956;2024-03-23T04:21:56;6.10;99.90
83650;DHT22;73612;50.948;6.956;2024-03-23T04:24:22;6.10;99.90
83650;DHT22;73612;50.948;6.956;2024-03-23T04:26:49;6.10;99.90
83650;DHT22;73612;50.948;6.956;2024-03-23T04:29:16;6.10;99.90
83650;DHT22;73612;50.948;6.956;2024-03-23T04:31:43;6.10;99.90
83650;DHT22;73612;50.948;6.956;2024-03-23T04:34:09;6.10;99.90
83650;DHT22;73612;50.948;6.956;2024-03-23T04:36:36;6.10;99.90
83650;DHT22;73612;50.948;6.956;2024-03-23T04:39:03;6.10;99.90
83650;DHT22;73612;50.948;6.956;2024-03-23T04:41:29;6.10;99.90
83650;DHT22;73612;50.948;6.956;2024-03-23T04:43:56;6.10;99.90
83650;DHT22;73612;50.948;6.956;2024-03-23T04:46:23;6.10;99.90
83650;DHT22;73612;50.948;6.956;2024-03-23T04:48:49;6.10;99.90
83650;DHT22;73612;50.948;6.956;2024-03-23T04:51:22;6.20;99.90
83650;DHT22;73612;50.948;6.956;2024-03-23T04:53:48;6.20;99.90
83650;DHT22;73612;50.948;6.956;2024-03-23T04:56:16;6.20;99.90
83650;DHT22;73612;50.948;6.956;2024-03-23T04:58:42;6.10;99.90
83650;DHT22;73612;50.948;6.956;2024-03-23T05:01:09;6.10;99.90
83650;DHT22;73612;50.948;6.956;2024-03-23T05:03:36;6.10;99.90
83650;DHT22;73612;50.948;6.956;2024-03-23T05:06:03;6.10;99.90
83650;DHT22;73612;50.948;6.956;2024-03-23T05:08:29;6.00;99.90
83650;DHT22;73612;50.948;6.956;2024-03-23T05:10:56;6.00;99.90
83650;DHT22;73612;50.948;6.956;2024-03-23T05:13:23;6.00;99.90
83650;DHT22;73612;50.948;6.956;2024-03-23T05:15:54;6.00;99.90
83650;DHT22;73612;50.948;6.956;2024-03-23T05:18:20;6.10;99.90
83650;DHT22;73612;50.948;6.956;2024-03-23T05:20:47;6.10;99.90
83650;DHT22;73612;50.948;6.956;2024-03-23T05:23:13;6.10;99.90
83650;DHT22;73612;50.948;6.956;2024-03-23T05:25:40;6.20;99.90
83650;DHT22;73612;50.948;6.956;2024-03-23T05:28:07;6.10;99.90
83650;DHT22;73612;50.948;6.956;2024-03-23T05:30:34;6.10;99.90
83650;DHT22;73612;50.948;6.956;2024-03-23T05:33:00;6.10;99.90
83650;DHT22;73612;50.948;6.956;2024-03-23T05:35:27;6.10;99.90
83650;DHT22;73612;50.948;6.956;2024-03-23T05:37:54;6.10;99.90
83650;DHT22;73612;50.948;6.956;2024-03-23T05:40:20;6.20;99.90
83650;DHT22;73612;50.948;6.956;2024-03-23T05:42:47;6.10;99.90
83650;DHT22;73612;50.948;6.956;2024-03-23T05:45:14;6.10;99.90
83650;DHT22;73612;50.948;6.956;2024-03-23T05:47:40;6.10;99.90
83650;DHT22;73612;50.948;6.956;2024-03-23T05:50:07;6.10;99.90
83650;DHT22;73612;50.948;6.956;2024-03-23T05:52:34;6.10;99.90
83650;DHT22;73612;50.948;6.956;2024-03-23T05:55:00;6.10;99.90
83650;DHT22;73612;50.948;6.956;2024-03-23T05:57:27;6.10;99.90
83650;DHT22;73612;50.948;6.956;2024-03-23T05:59:54;6.20;99.90
83650;DHT22;73612;50.948;6.956;2024-03-23T06:02:20;6.10;99.90
83650;DHT22;73612;50.948;6.956;2024-03-23T06:04:47;6.10;99.90
83650;DHT22;73612;50.948;6.956;2024-03-23T06:07:13;6.20;99.90
83650;DHT22;73612;50.948;6.956;2024-03-23T06:09:41;6.20;99.90
83650;DHT22;73612;50.948;6.956;2024-03-23T06:12:08;6.10;99.90
83650;DHT22;73612;50.948;6.956;2024-03-23T06:14:34;6.10;99.90
83650;DHT22;73612;50.948;6.956;2024-03-23T06:17:01;6.10;99.90
83650;DHT22;73612;50.948;6.956;2024-03-23T06:19:28;6.20;99.90
83650;DHT22;73612;50.948;6.956;2024-03-23T06:21:55;6.20;99.90
83650;DHT22;73612;50.948;6.956;2024-03-23T06:24:22;6.20;99.90
83650;DHT22;73612;50.948;6.956;2024-03-23T06:26:48;6.20;99.90
83650;DHT22;73612;50.948;6.956;2024-03-23T06:29:15;6.20;99.90
83650;DHT22;73612;50.948;6.956;2024-03-23T06:31:41;6.10;99.90
83650;DHT22;73612;50.948;6.956;2024-03-23T06:34:08;6.10;99.90
83650;DHT22;73612;50.948;6.956;2024-03-23T06:36:35;6.10;99.90
83650;DHT22;73612;50.948;6.956;2024-03-23T06:39:02;6.10;99.90
83650;DHT22;73612;50.948;6.956;2024-03-23T06:41:28;6.10;99.90
83650;DHT22;73612;50.948;6.956;2024-03-23T06:43:55;6.10;99.90
83650;DHT22;73612;50.948;6.956;2024-03-23T06:46:22;6.10;99.90
83650;DHT22;73612;50.948;6.956;2024-03-23T06:48:49;6.10;99.90
83650;DHT22;73612;50.948;6.956;2024-03-23T06:51:15;6.20;99.90
83650;DHT22;73612;50.948;6.956;2024-03-23T06:53:42;6.20;99.90
83650;DHT22;73612;50.948;6.956;2024-03-23T06:56:09;6.30;99.90
83650;DHT22;73612;50.948;6.956;2024-03-23T06:58:36;6.30;99.90
83650;DHT22;73612;50.948;6.956;2024-03-23T07:01:03;6.40;99.90
83650;DHT22;73612;50.948;6.956;2024-03-23T07:03:29;6.40;99.90
83650;DHT22;73612;50.948;6.956;2024-03-23T07:05:59;6.40;99.90
83650;DHT22;73612;50.948;6.956;2024-03-23T07:08:26;6.50;99.90
83650;DHT22;73612;50.948;6.956;2024-03-23T07:10:52;6.60;99.90
83650;DHT22;73612;50.948;6.956;2024-03-23T07:13:19;6.60;99.90
83650;DHT22;73612;50.948;6.956;2024-03-23T07:15:51;6.70;99.90
83650;DHT22;73612;50.948;6.956;2024-03-23T07:18:12;6.70;99.90
83650;DHT22;73612;50.948;6.956;2024-03-23T07:20:39;6.80;99.90
83650;DHT22;73612;50.948;6.956;2024-03-23T07:23:06;6.90;99.90
83650;DHT22;73612;50.948;6.956;2024-03-23T07:25:33;6.90;99.90
83650;DHT22;73612;50.948;6.956;2024-03-23T07:27:59;7.00;99.90
83650;DHT22;73612;50.948;6.956;2024-03-23T07:30:26;7.10;99.90
83650;DHT22;73612;50.948;6.956;2024-03-23T07:32:53;7.20;99.90
83650;DHT22;73612;50.948;6.956;2024-03-23T07:35:19;7.20;99.90
83650;DHT22;73612;50.948;6.956;2024-03-23T07:37:46;7.30;99.90
83650;DHT22;73612;50.948;6.956;2024-03-23T07:40:12;7.30;99.90
83650;DHT22;73612;50.948;6.956;2024-03-23T07:42:39;7.40;99.90
83650;DHT22;73612;50.948;6.956;2024-03-23T07:45:06;7.50;99.90
83650;DHT22;73612;50.948;6.956;2024-03-23T07:47:33;7.50;99.90
83650;DHT22;73612;50.948;6.956;2024-03-23T07:50:00;7.70;99.90
83650;DHT22;73612;50.948;6.956;2024-03-23T07:52:28;7.80;99.90
83650;DHT22;73612;50.948;6.956;2024-03-23T07:54:55;7.90;99.90
83650;DHT22;73612;50.948;6.956;2024-03-23T07:57:22;8.10;99.90
83650;DHT22;73612;50.948;6.956;2024-03-23T07:59:48;8.10;99.90
83650;DHT22;73612;50.948;6.956;2024-03-23T08:02:15;8.20;99.90
83650;DHT22;73612;50.948;6.956;2024-03-23T08:04:42;8.10;99.90
83650;DHT22;73612;50.948;6.956;2024-03-23T08:07:20;8.10;99.90
83650;DHT22;73612;50.948;6.956;2024-03-23T08:09:53;8.20;99.90
83650;DHT22;73612;50.948;6.956;2024-03-23T08:12:33;8.30;99.90
83650;DHT22;73612;50.948;6.956;2024-03-23T08:15:20;8.30;99.90
83650;DHT22;73612;50.948;6.956;2024-03-23T08:17:59;8.40;99.90
83650;DHT22;73612;50.948;6.956;2024-03-23T08:20:32;8.50;99.90
83650;DHT22;73612;50.948;6.956;2024-03-23T08:23:11;8.60;99.90
83650;DHT22;73612;50.948;6.956;2024-03-23T08:25:40;8.60;99.90
83650;DHT22;73612;50.948;6.956;2024-03-23T08:28:06;8.70;99.90
83650;DHT22;73612;50.948;6.956;2024-03-23T08:30:34;8.80;99.90
83650;DHT22;73612;50.948;6.956;2024-03-23T08:33:00;8.90;99.90
83650;DHT22;73612;50.948;6.956;2024-03-23T08:35:26;9.10;99.90
83650;DHT22;73612;50.948;6.956;2024-03-23T08:37:53;9.20;99.90
83650;DHT22;73612;50.948;6.956;2024-03-23T08:40:19;8.90;99.90
83650;DHT22;73612;50.948;6.956;2024-03-23T08:42:46;8.60;99.90
83650;DHT22;73612;50.948;6.956;2024-03-23T08:45:13;8.50;99.90
83650;DHT22;73612;50.948;6.956;2024-03-23T08:47:39;8.50;99.90
83650;DHT22;73612;50.948;6.956;2024-03-23T08:50:07;8.80;99.90
83650;DHT22;73612;50.948;6.956;2024-03-23T08:52:34;8.90;99.90
83650;DHT22;73612;50.948;6.956;2024-03-23T08:55:00;8.90;99.90
83650;DHT22;73612;50.948;6.956;2024-03-23T08:57:27;9.10;99.90
83650;DHT22;73612;50.948;6.956;2024-03-23T08:59:54;9.30;99.90
83650;DHT22;73612;50.948;6.956;2024-03-23T09:02:20;9.30;99.90
83650;DHT22;73612;50.948;6.956;2024-03-23T09:04:47;9.40;99.90
83650;DHT22;73612;50.948;6.956;2024-03-23T09:07:13;9.70;99.90
83650;DHT22;73612;50.948;6.956;2024-03-23T09:09:40;9.80;99.90
83650;DHT22;73612;50.948;6.956;2024-03-23T09:12:07;9.80;99.90
83650;DHT22;73612;50.948;6.956;2024-03-23T09:14:33;9.90;99.90
83650;DHT22;73612;50.948;6.956;2024-03-23T09:17:00;9.90;99.90
83650;DHT22;73612;50.948;6.956;2024-03-23T09:19:28;9.80;99.90
83650;DHT22;73612;50.948;6.956;2024-03-23T09:21:55;9.50;99.90
83650;DHT22;73612;50.948;6.956;2024-03-23T09:24:21;9.40;99.90
83650;DHT22;73612;50.948;6.956;2024-03-23T09:26:48;9.20;99.90
83650;DHT22;73612;50.948;6.956;2024-03-23T09:29:15;9.00;99.90
83650;DHT22;73612;50.948;6.956;2024-03-23T09:31:42;8.90;99.90
83650;DHT22;73612;50.948;6.956;2024-03-23T09:34:09;8.80;99.90
83650;DHT22;73612;50.948;6.956;2024-03-23T09:36:36;8.80;99.90
83650;DHT22;73612;50.948;6.956;2024-03-23T09:39:03;9.10;99.90
83650;DHT22;73612;50.948;6.956;2024-03-23T09:41:33;9.10;99.90
83650;DHT22;73612;50.948;6.956;2024-03-23T09:44:14;9.20;99.90
83650;DHT22;73612;50.948;6.956;2024-03-23T09:46:56;9.10;99.90
83650;DHT22;73612;50.948;6.956;2024-03-23T09:49:31;9.20;99.90
83650;DHT22;73612;50.948;6.956;2024-03-23T09:54:49;9.30;99.90
83650;DHT22;73612;50.948;6.956;2024-03-23T09:57:18;9.40;99.90
83650;DHT22;73612;50.948;6.956;2024-03-23T09:59:47;9.60;99.90
83650;DHT22;73612;50.948;6.956;2024-03-23T10:02:15;9.90;99.90
83650;DHT22;73612;50.948;6.956;2024-03-23T10:04:41;10.20;99.90
83650;DHT22;73612;50.948;6.956;2024-03-23T10:07:12;10.40;99.90
83650;DHT22;73612;50.948;6.956;2024-03-23T10:09:39;10.60;99.90
83650;DHT22;73612;50.948;6.956;2024-03-23T10:12:11;10.70;99.90
83650;DHT22;73612;50.948;6.956;2024-03-23T10:14:37;10.80;99.90
83650;DHT22;73612;50.948;6.956;2024-03-23T10:17:15;11.00;99.90
83650;DHT22;73612;50.948;6.956;2024-03-23T10:19:41;11.10;99.90
83650;DHT22;73612;50.948;6.956;2024-03-23T10:22:07;10.80;99.90
83650;DHT22;73612;50.948;6.956;2024-03-23T10:24:33;10.70;97.90
83650;DHT22;73612;50.948;6.956;2024-03-23T10:27:00;10.50;98.50
83650;DHT22;73612;50.948;6.956;2024-03-23T10:29:27;10.70;99.90
83650;DHT22;73612;50.948;6.956;2024-03-23T10:31:53;10.70;99.90
83650;DHT22;73612;50.948;6.956;2024-03-23T10:34:25;10.60;99.90
83650;DHT22;73612;50.948;6.956;2024-03-23T10:36:53;10.20;98.50
83650;DHT22;73612;50.948;6.956;2024-03-23T10:39:18;10.10;99.10
83650;DHT22;73612;50.948;6.956;2024-03-23T10:41:45;9.80;99.90
83650;DHT22;73612;50.948;6.956;2024-03-23T10:44:12;9.40;99.90
83650;DHT22;73612;50.948;6.956;2024-03-23T10:46:39;9.40;99.90
83650;DHT22;73612;50.948;6.956;2024-03-23T10:49:06;9.50;99.90
83650;DHT22;73612;50.948;6.956;2024-03-23T10:51:32;9.70;99.90
83650;DHT22;73612;50.948;6.956;2024-03-23T10:53:59;9.70;99.90
83650;DHT22;73612;50.948;6.956;2024-03-23T10:56:26;9.90;99.90
83650;DHT22;73612;50.948;6.956;2024-03-23T10:58:52;9.80;99.90
83650;DHT22;73612;50.948;6.956;2024-03-23T11:01:19;10.00;99.90
83650;DHT22;73612;50.948;6.956;2024-03-23T11:03:46;10.20;99.90
83650;DHT22;73612;50.948;6.956;2024-03-23T11:08:45;9.20;99.90
83650;DHT22;73612;50.948;6.956;2024-03-23T11:11:18;8.80;99.90
83650;DHT22;73612;50.948;6.956;2024-03-23T11:13:47;9.00;99.90
83650;DHT22;73612;50.948;6.956;2024-03-23T11:16:13;10.90;99.90
83650;DHT22;73612;50.948;6.956;2024-03-23T11:18:39;12.70;98.50
83650;DHT22;73612;50.948;6.956;2024-03-23T11:21:07;12.90;96.90
83650;DHT22;73612;50.948;6.956;2024-03-23T11:23:34;13.50;98.20
83650;DHT22;73612;50.948;6.956;2024-03-23T11:26:00;14.20;97.10
83650;DHT22;73612;50.948;6.956;2024-03-23T11:28:27;11.80;96.10
83650;DHT22;73612;50.948;6.956;2024-03-23T11:30:54;9.30;99.90
83650;DHT22;73612;50.948;6.956;2024-03-23T11:33:20;8.20;99.90
83650;DHT22;73612;50.948;6.956;2024-03-23T11:35:47;7.90;99.90
83650;DHT22;73612;50.948;6.956;2024-03-23T11:38:14;7.60;99.90
83650;DHT22;73612;50.948;6.956;2024-03-23T11:40:42;7.50;99.90
83650;DHT22;73612;50.948;6.956;2024-03-23T11:43:09;7.90;99.90
83650;DHT22;73612;50.948;6.956;2024-03-23T11:45:36;9.70;99.90
83650;DHT22;73612;50.948;6.956;2024-03-23T11:48:05;11.50;99.90
83650;DHT22;73612;50.948;6.956;2024-03-23T11:50:31;11.20;99.90
83650;DHT22;73612;50.948;6.956;2024-03-23T11:53:07;10.40;99.90
83650;DHT22;73612;50.948;6.956;2024-03-23T11:55:41;9.40;99.90
83650;DHT22;73612;50.948;6.956;2024-03-23T11:58:07;9.40;99.90
83650;DHT22;73612;50.948;6.956;2024-03-23T12:00:34;9.40;99.90
83650;DHT22;73612;50.948;6.956;2024-03-23T12:03:02;8.70;99.90
83650;DHT22;73612;50.948;6.956;2024-03-23T12:05:29;8.20;99.90
83650;DHT22;73612;50.948;6.956;2024-03-23T12:07:55;7.90;99.90
83650;DHT22;73612;50.948;6.956;2024-03-23T12:10:22;7.70;99.90
83650;DHT22;73612;50.948;6.956;2024-03-23T12:13:04;7.70;99.90
83650;DHT22;73612;50.948;6.956;2024-03-23T12:15:30;7.70;99.90
83650;DHT22;73612;50.948;6.956;2024-03-23T12:18:07;7.90;99.90
83650;DHT22;73612;50.948;6.956;2024-03-23T12:20:32;8.60;99.90
83650;DHT22;73612;50.948;6.956;2024-03-23T12:23:07;11.00;99.90
83650;DHT22;73612;50.948;6.956;2024-03-23T12:25:34;11.90;99.90
83650;DHT22;73612;50.948;6.956;2024-03-23T12:28:00;10.50;99.90
83650;DHT22;73612;50.948;6.956;2024-03-23T12:30:26;9.20;99.90
83650;DHT22;73612;50.948;6.956;2024-03-23T12:32:53;8.50;99.90
83650;DHT22;73612;50.948;6.956;2024-03-23T12:35:20;8.20;99.90
83650;DHT22;73612;50.948;6.956;2024-03-23T12:37:46;8.90;99.90
83650;DHT22;73612;50.948;6.956;2024-03-23T12:40:13;8.60;99.90
83650;DHT22;73612;50.948;6.956;2024-03-23T12:42:40;7.80;99.90
83650;DHT22;73612;50.948;6.956;2024-03-23T12:45:07;7.20;99.90
83650;DHT22;73612;50.948;6.956;2024-03-23T12:47:34;6.80;99.90
83650;DHT22;73612;50.948;6.956;2024-03-23T12:50:00;7.30;99.90
83650;DHT22;73612;50.948;6.956;2024-03-23T12:52:27;8.70;99.90
83650;DHT22;73612;50.948;6.956;2024-03-23T12:54:54;9.10;99.90
83650;DHT22;73612;50.948;6.956;2024-03-23T12:57:22;10.30;99.90
83650;DHT22;73612;50.948;6.956;2024-03-23T12:59:48;10.30;99.90
83650;DHT22;73612;50.948;6.956;2024-03-23T13:02:15;10.40;99.90
83650;DHT22;73612;50.948;6.956;2024-03-23T13:04:42;10.90;99.90
83650;DHT22;73612;50.948;6.956;2024-03-23T13:07:08;12.90;99.90
83650;DHT22;73612;50.948;6.956;2024-03-23T13:09:35;14.20;95.20
83650;DHT22;73612;50.948;6.956;2024-03-23T13:12:02;15.40;81.30
83650;DHT22;73612;50.948;6.956;2024-03-23T13:14:28;14.10;87.60
83650;DHT22;73612;50.948;6.956;2024-03-23T13:16:55;12.50;96.30
83650;DHT22;73612;50.948;6.956;2024-03-23T13:19:22;11.00;96.80
83650;DHT22;73612;50.948;6.956;2024-03-23T13:21:48;10.40;97.80
83650;DHT22;73612;50.948;6.956;2024-03-23T13:24:15;10.20;99.60
83650;DHT22;73612;50.948;6.956;2024-03-23T13:26:42;10.80;99.90
83650;DHT22;73612;50.948;6.956;2024-03-23T13:29:08;12.20;98.80
83650;DHT22;73612;50.948;6.956;2024-03-23T13:31:35;14.90;89.60
83650;DHT22;73612;50.948;6.956;2024-03-23T13:34:02;15.80;73.90
83650;DHT22;73612;50.948;6.956;2024-03-23T13:36:28;15.30;81.70
83650;DHT22;73612;50.948;6.956;2024-03-23T13:38:55;15.20;87.90
83650;DHT22;73612;50.948;6.956;2024-03-23T13:41:22;15.20;81.70
83650;DHT22;73612;50.948;6.956;2024-03-23T13:43:48;15.70;66.20
83650;DHT22;73612;50.948;6.956;2024-03-23T13:46:15;15.10;68.40
83650;DHT22;73612;50.948;6.956;2024-03-23T13:48:42;13.90;70.60
83650;DHT22;73612;50.948;6.956;2024-03-23T13:51:08;13.40;91.40
83650;DHT22;73612;50.948;6.956;2024-03-23T13:53:35;13.00;86.30
83650;DHT22;73612;50.948;6.956;2024-03-23T13:56:01;11.90;92.00
83650;DHT22;73612;50.948;6.956;2024-03-23T13:58:28;11.10;97.70
83650;DHT22;73612;50.948;6.956;2024-03-23T14:00:56;10.60;99.10
83650;DHT22;73612;50.948;6.956;2024-03-23T14:03:21;10.10;96.60
83650;DHT22;73612;50.948;6.956;2024-03-23T14:05:48;9.70;99.90
83650;DHT22;73612;50.948;6.956;2024-03-23T14:08:15;9.20;96.20
83650;DHT22;73612;50.948;6.956;2024-03-23T14:10:42;8.60;99.10
83650;DHT22;73612;50.948;6.956;2024-03-23T14:13:10;8.40;99.90
83650;DHT22;73612;50.948;6.956;2024-03-23T14:15:38;8.50;99.90
83650;DHT22;73612;50.948;6.956;2024-03-23T14:18:05;8.50;99.90
83650;DHT22;73612;50.948;6.956;2024-03-23T14:20:31;8.90;99.90
83650;DHT22;73612;50.948;6.956;2024-03-23T14:22:58;10.30;98.70
83650;DHT22;73612;50.948;6.956;2024-03-23T14:25:24;11.10;90.20
83650;DHT22;73612;50.948;6.956;2024-03-23T14:27:51;11.10;92.90
83650;DHT22;73612;50.948;6.956;2024-03-23T14:30:18;11.40;95.20
83650;DHT22;73612;50.948;6.956;2024-03-23T14:32:44;11.30;95.40
83650;DHT22;73612;50.948;6.956;2024-03-23T14:35:11;11.30;95.70
83650;DHT22;73612;50.948;6.956;2024-03-23T14:37:38;11.20;90.20
83650;DHT22;73612;50.948;6.956;2024-03-23T14:40:05;11.60;92.10
83650;DHT22;73612;50.948;6.956;2024-03-23T14:42:32;11.70;87.80
83650;DHT22;73612;50.948;6.956;2024-03-23T14:44:59;11.50;92.00
83650;DHT22;73612;50.948;6.956;2024-03-23T14:47:26;11.40;91.60
83650;DHT22;73612;50.948;6.956;2024-03-23T14:49:53;10.60;95.10
83650;DHT22;73612;50.948;6.956;2024-03-23T14:52:20;9.70;99.90
83650;DHT22;73612;50.948;6.956;2024-03-23T14:54:46;9.30;99.90
83650;DHT22;73612;50.948;6.956;2024-03-23T14:57:13;8.80;99.90
83650;DHT22;73612;50.948;6.956;2024-03-23T14:59:40;8.30;99.90
83650;DHT22;73612;50.948;6.956;2024-03-23T15:02:09;7.70;99.90
83650;DHT22;73612;50.948;6.956;2024-03-23T15:04:36;7.10;99.90
83650;DHT22;73612;50.948;6.956;2024-03-23T15:07:03;6.80;99.90
83650;DHT22;73612;50.948;6.956;2024-03-23T15:09:30;6.60;99.90
83650;DHT22;73612;50.948;6.956;2024-03-23T15:11:56;6.40;99.90
83650;DHT22;73612;50.948;6.956;2024-03-23T15:14:23;6.40;99.90
83650;DHT22;73612;50.948;6.956;2024-03-23T15:16:50;6.40;99.90
83650;DHT22;73612;50.948;6.956;2024-03-23T15:19:17;6.40;99.90
83650;DHT22;73612;50.948;6.956;2024-03-23T15:21:44;6.40;99.90
83650;DHT22;73612;50.948;6.956;2024-03-23T15:24:10;7.20;99.90
83650;DHT22;73612;50.948;6.956;2024-03-23T15:26:37;8.20;99.90
83650;DHT22;73612;50.948;6.956;2024-03-23T15:29:04;9.50;99.90
83650;DHT22;73612;50.948;6.956;2024-03-23T15:31:34;9.80;99.90
83650;DHT22;73612;50.948;6.956;2024-03-23T15:34:01;8.60;99.90
83650;DHT22;73612;50.948;6.956;2024-03-23T15:36:28;7.90;99.90
83650;DHT22;73612;50.948;6.956;2024-03-23T15:38:55;7.90;99.90
83650;DHT22;73612;50.948;6.956;2024-03-23T15:41:21;7.80;99.90
83650;DHT22;73612;50.948;6.956;2024-03-23T15:43:52;8.10;99.90
83650;DHT22;73612;50.948;6.956;2024-03-23T15:46:19;8.20;99.90
83650;DHT22;73612;50.948;6.956;2024-03-23T15:48:45;8.30;99.90
83650;DHT22;73612;50.948;6.956;2024-03-23T15:51:12;7.90;99.90
83650;DHT22;73612;50.948;6.956;2024-03-23T15:53:39;7.60;99.90
83650;DHT22;73612;50.948;6.956;2024-03-23T15:56:06;7.60;99.90
83650;DHT22;73612;50.948;6.956;2024-03-23T15:58:33;7.40;99.90
83650;DHT22;73612;50.948;6.956;2024-03-23T16:01:02;7.40;99.90
83650;DHT22;73612;50.948;6.956;2024-03-23T16:03:28;7.40;99.90
83650;DHT22;73612;50.948;6.956;2024-03-23T16:05:55;7.30;99.90
83650;DHT22;73612;50.948;6.956;2024-03-23T16:08:21;7.20;99.90
83650;DHT22;73612;50.948;6.956;2024-03-23T16:10:48;7.20;99.90
83650;DHT22;73612;50.948;6.956;2024-03-23T16:13:14;7.20;99.90
83650;DHT22;73612;50.948;6.956;2024-03-23T16:15:41;7.10;99.90
83650;DHT22;73612;50.948;6.956;2024-03-23T16:18:08;7.10;99.90
83650;DHT22;73612;50.948;6.956;2024-03-23T16:20:34;7.10;99.90
83650;DHT22;73612;50.948;6.956;2024-03-23T16:23:01;7.00;99.90
83650;DHT22;73612;50.948;6.956;2024-03-23T16:25:28;6.80;99.90
83650;DHT22;73612;50.948;6.956;2024-03-23T16:27:55;6.80;99.90
83650;DHT22;73612;50.948;6.956;2024-03-23T16:30:22;6.90;99.90
83650;DHT22;73612;50.948;6.956;2024-03-23T16:32:48;6.90;99.90
83650;DHT22;73612;50.948;6.956;2024-03-23T16:35:15;7.00;99.90
83650;DHT22;73612;50.948;6.956;2024-03-23T16:37:42;7.20;99.90
83650;DHT22;73612;50.948;6.956;2024-03-23T16:40:09;7.20;99.90